WAAA

Makassar/Sultan Hasanuddin International Airport

Airport
ICAO code
WAAA
IATA Code
UPG
Summary
ICAO Region
APAC
ICAO Territory
Location

Maros, South Sulawesi

Serving
Makassar
Elevation
47 ft
Coordinates
5° 4' 40" S , 119° 32' 58" E
KCC
Af
Metar
Observation
WAAA 101030Z VRB02KT 8000 -RA SCT019 28/23 Q1009 NOSIG
Station
Ujung Pandang / Hasanuddin
Date/Time
2022-08-10 10:30:00
Wind speed
02 kts
Lowest cloud amount
scattered clouds
Temperature
28°C
Dew point
23°C
Humidity
74%
QNH
1009 hPa
Weather condition
n/a

Description

Airport located 12nm north east of the city of Makassar, South Sulawesi, Indonesia.

Climatology

Tropical Rainforest climate (Köppen climate classification Af) - almost no distinct seasons, average daily temperature around 27°C throughout the year. Extensive cloud cover and heavy rainfall prevent temperatures from rising much over 33°C. The diurnal temperature change is between 2°C and 5°C which is greater than the annual temperature range of 2°C. Rainfall is heavy and is usually convectional and in the afternoon.

Airport map

Aerial View

SKYbrary Partners:

Safety knowledge contributed by: